METAR Formatted Surface Weather Observation
Issued by NWS

Home | Current Version | Previous Version | Text Only | Print | Product List | Glossary On
Versions: 1 2 3 4 5 6 7 8 9 10 11 12 13 14 15 16 17 18 19 20 21
000
SAUS41 KAKQ 150025
MTRNUI
SPECI KNUI 150024Z AUTO 00000KT 5SM -RA BR BKN005 OVC015 02/01 A3039
RMK AO2 UPB03E08 P0001 T00220011



USA.gov is the U.S. government's official web portal to all federal, state and local government web resources and services.